Time,TemperatureF,DewpointF,PressureIn,WindDirection,WindDirectionDegrees,WindSpeedMPH,WindSpeedGustMPH,Humidity,HourlyPrecipIn,Conditions,Clouds,dailyrainin,SolarRadiationWatts/m^2,SoftwareType,DateUTC
2013-08-17 00:03:00,60.0,52.0,-100.00,SW,235,3.0,10.0,74,0.00,,,0.00,0.000000,,2013-08-17 04:03:00,
2013-08-17 00:13:00,60.0,52.0,-100.00,SW,235,3.0,10.0,74,0.00,,,0.00,0.000000,,2013-08-17 04:13:00,
2013-08-17 00:44:00,59.0,53.0,-100.00,SSW,209,3.0,5.0,80,0.00,,,0.00,0.000000,,2013-08-17 04:44:00,
2013-08-17 00:53:00,59.0,53.0,-100.00,SSW,209,3.0,5.0,80,0.00,,,0.00,0.000000,,2013-08-17 04:53:00,
2013-08-17 01:03:00,59.0,53.0,-100.00,SSW,209,3.0,5.0,80,0.00,,,0.00,0.000000,,2013-08-17 05:03:00,
2013-08-17 01:13:00,59.0,53.0,-100.00,SSW,209,3.0,5.0,80,0.00,,,0.00,0.000000,,2013-08-17 05:13:00,
2013-08-17 01:42:00,59.0,51.0,-100.00,SW,235,3.0,9.0,75,0.00,,,0.00,0.000000,,2013-08-17 05:42:00,
2013-08-17 01:52:00,59.0,51.0,-100.00,SW,235,3.0,9.0,75,0.00,,,0.00,0.000000,,2013-08-17 05:52:00,
2013-08-17 02:01:00,59.0,51.0,-100.00,SW,235,3.0,9.0,75,0.00,,,0.00,0.000000,,2013-08-17 06:01:00,
2013-08-17 02:12:00,59.0,51.0,-100.00,SW,235,3.0,9.0,75,0.00,,,0.00,0.000000,,2013-08-17 06:12:00,
2013-08-17 02:42:00,57.0,53.0,-100.00,WSW,248,2.0,5.0,85,0.00,,,0.00,0.000000,,2013-08-17 06:42:00,
2013-08-17 02:52:00,57.0,53.0,-100.00,WSW,248,2.0,5.0,85,0.00,,,0.00,0.000000,,2013-08-17 06:52:00,
2013-08-17 03:01:00,57.0,53.0,-100.00,WSW,248,2.0,5.0,85,0.00,,,0.00,0.000000,,2013-08-17 07:01:00,
2013-08-17 03:11:00,57.0,53.0,-100.00,WSW,248,2.0,5.0,85,0.00,,,0.00,0.000000,,2013-08-17 07:11:00,
2013-08-17 03:42:00,56.0,52.0,-100.00,WSW,248,1.0,5.0,86,0.00,,,0.00,0.000000,,2013-08-17 07:42:00,
2013-08-17 03:52:00,56.0,52.0,-100.00,WSW,248,1.0,5.0,86,0.00,,,0.00,0.000000,,2013-08-17 07:52:00,
2013-08-17 04:02:00,56.0,52.0,-100.00,WSW,248,1.0,5.0,86,0.00,,,0.00,0.000000,,2013-08-17 08:02:00,
2013-08-17 04:11:00,56.0,52.0,-100.00,WSW,248,1.0,5.0,86,0.00,,,0.00,0.000000,,2013-08-17 08:11:00,
2013-08-17 04:42:00,58.0,53.0,-100.00,East,91,2.0,7.0,82,0.00,,,0.00,0.000000,,2013-08-17 08:42:00,
2013-08-17 04:52:00,58.0,53.0,-100.00,East,91,2.0,7.0,82,0.00,,,0.00,0.000000,,2013-08-17 08:52:00,
2013-08-17 05:02:00,58.0,53.0,-100.00,East,91,2.0,7.0,82,0.00,,,0.00,0.000000,,2013-08-17 09:02:00,
2013-08-17 05:11:00,58.0,53.0,-100.00,East,91,2.0,7.0,82,0.00,,,0.00,0.000000,,2013-08-17 09:11:00,
2013-08-17 05:43:00,58.0,51.0,-100.00,ENE,73,3.0,11.0,77,0.00,,,0.00,0.000000,,2013-08-17 09:43:00,
2013-08-17 05:53:00,58.0,51.0,-100.00,ENE,73,3.0,11.0,77,0.00,,,0.00,0.000000,,2013-08-17 09:53:00,
2013-08-17 06:03:00,58.0,51.0,-100.00,ENE,73,3.0,11.0,77,0.00,,,0.00,0.000000,,2013-08-17 10:03:00,
2013-08-17 06:12:00,58.0,51.0,-100.00,ENE,73,3.0,11.0,77,0.00,,,0.00,0.000000,,2013-08-17 10:12:00,
2013-08-17 06:42:00,53.0,50.0,-100.00,SE,135,3.0,11.0,89,0.00,,,0.00,0.000000,,2013-08-17 10:42:00,
2013-08-17 06:53:00,53.0,50.0,-100.00,SE,135,3.0,11.0,89,0.00,,,0.00,0.000000,,2013-08-17 10:53:00,
2013-08-17 07:02:00,53.0,50.0,-100.00,SE,135,3.0,11.0,89,0.00,,,0.00,0.000000,,2013-08-17 11:02:00,
2013-08-17 07:12:00,53.0,50.0,-100.00,SE,135,3.0,11.0,89,0.00,,,0.00,0.000000,,2013-08-17 11:12:00,
2013-08-17 07:42:00,57.0,54.0,-100.00,SE,130,3.0,8.0,91,0.00,,,0.00,15.000000,,2013-08-17 11:42:00,
2013-08-17 07:52:00,57.0,54.0,-100.00,SE,130,3.0,8.0,91,0.00,,,0.00,15.000000,,2013-08-17 11:52:00,
2013-08-17 08:01:00,57.0,54.0,-100.00,SE,130,3.0,8.0,91,0.00,,,0.00,15.000000,,2013-08-17 12:01:00,
2013-08-17 08:11:00,57.0,54.0,-100.00,SE,130,3.0,8.0,91,0.00,,,0.00,15.000000,,2013-08-17 12:11:00,
2013-08-17 09:42:00,65.0,56.0,-100.00,NNE,30,3.0,6.0,73,0.00,,,0.00,311.000000,,2013-08-17 13:42:00,
2013-08-17 09:52:00,65.0,56.0,-100.00,NNE,30,3.0,6.0,73,0.00,,,0.00,311.000000,,2013-08-17 13:52:00,
2013-08-17 10:01:00,65.0,56.0,-100.00,NNE,30,3.0,6.0,73,0.00,,,0.00,311.000000,,2013-08-17 14:01:00,
2013-08-17 10:11:00,65.0,56.0,-100.00,NNE,30,3.0,6.0,73,0.00,,,0.00,311.000000,,2013-08-17 14:11:00,
2013-08-17 10:42:00,69.0,55.0,-100.00,NNE,33,4.0,9.0,60,0.00,,,0.00,457.000000,,2013-08-17 14:42:00,
2013-08-17 10:52:00,69.0,55.0,-100.00,NNE,33,4.0,9.0,60,0.00,,,0.00,457.000000,,2013-08-17 14:52:00,
2013-08-17 11:01:00,69.0,55.0,-100.00,NNE,33,4.0,9.0,60,0.00,,,0.00,457.000000,,2013-08-17 15:01:00,
2013-08-17 11:11:00,69.0,55.0,-100.00,NNE,33,4.0,9.0,60,0.00,,,0.00,457.000000,,2013-08-17 15:11:00,
2013-08-17 11:44:00,71.0,54.0,-100.00,ENE,77,6.0,15.0,54,0.00,,,0.00,644.000000,,2013-08-17 15:44:00,
2013-08-17 11:54:00,71.0,54.0,-100.00,ENE,77,6.0,15.0,54,0.00,,,0.00,644.000000,,2013-08-17 15:54:00,
2013-08-17 12:03:00,71.0,54.0,-100.00,ENE,77,6.0,15.0,54,0.00,,,0.00,644.000000,,2013-08-17 16:03:00,
2013-08-17 12:12:00,71.0,54.0,-100.00,ENE,77,6.0,15.0,54,0.00,,,0.00,644.000000,,2013-08-17 16:12:00,
2013-08-17 12:42:00,71.0,52.0,-100.00,East,81,6.0,15.0,52,0.00,,,0.00,621.000000,,2013-08-17 16:42:00,
2013-08-17 12:53:00,71.0,52.0,-100.00,East,81,6.0,15.0,52,0.00,,,0.00,621.000000,,2013-08-17 16:53:00,
2013-08-17 13:02:00,71.0,52.0,-100.00,East,81,6.0,15.0,52,0.00,,,0.00,621.000000,,2013-08-17 17:02:00,
2013-08-17 13:12:00,71.0,52.0,-100.00,East,81,6.0,15.0,52,0.00,,,0.00,621.000000,,2013-08-17 17:12:00,
2013-08-17 13:42:00,72.0,52.0,-100.00,ESE,107,7.0,15.0,50,0.00,,,0.00,729.000000,,2013-08-17 17:42:00,
2013-08-17 13:52:00,72.0,52.0,-100.00,ESE,107,7.0,15.0,50,0.00,,,0.00,729.000000,,2013-08-17 17:52:00,
2013-08-17 14:02:00,72.0,52.0,-100.00,ESE,107,7.0,15.0,50,0.00,,,0.00,729.000000,,2013-08-17 18:02:00,
2013-08-17 14:12:00,72.0,52.0,-100.00,ESE,107,7.0,15.0,50,0.00,,,0.00,729.000000,,2013-08-17 18:12:00,
2013-08-17 14:42:00,73.0,53.0,-100.00,East,91,6.0,15.0,49,0.00,,,0.00,608.000000,,2013-08-17 18:42:00,
2013-08-17 14:52:00,73.0,53.0,-100.00,East,91,6.0,15.0,49,0.00,,,0.00,608.000000,,2013-08-17 18:52:00,
2013-08-17 15:02:00,73.0,53.0,-100.00,East,91,6.0,15.0,49,0.00,,,0.00,608.000000,,2013-08-17 19:02:00,
2013-08-17 15:11:00,73.0,53.0,-100.00,East,91,6.0,15.0,49,0.00,,,0.00,608.000000,,2013-08-17 19:11:00,
2013-08-17 15:42:00,73.0,54.0,-100.00,East,87,6.0,19.0,51,0.00,,,0.00,570.000000,,2013-08-17 19:42:00,
2013-08-17 15:52:00,73.0,54.0,-100.00,East,87,6.0,19.0,51,0.00,,,0.00,570.000000,,2013-08-17 19:52:00,
2013-08-17 16:02:00,73.0,54.0,-100.00,East,87,6.0,19.0,51,0.00,,,0.00,570.000000,,2013-08-17 20:02:00,
2013-08-17 16:11:00,73.0,54.0,-100.00,East,87,6.0,19.0,51,0.00,,,0.00,570.000000,,2013-08-17 20:11:00,
2013-08-17 16:42:00,72.0,54.0,-100.00,East,83,6.0,12.0,53,0.00,,,0.00,425.000000,,2013-08-17 20:42:00,
2013-08-17 16:52:00,72.0,54.0,-100.00,East,83,6.0,12.0,53,0.00,,,0.00,425.000000,,2013-08-17 20:52:00,
2013-08-17 17:01:00,72.0,54.0,-100.00,East,83,6.0,12.0,53,0.00,,,0.00,425.000000,,2013-08-17 21:01:00,
2013-08-17 17:11:00,72.0,54.0,-100.00,East,83,6.0,12.0,53,0.00,,,0.00,425.000000,,2013-08-17 21:11:00,
2013-08-17 17:42:00,71.0,54.0,-100.00,ENE,74,6.0,13.0,56,0.00,,,0.00,287.000000,,2013-08-17 21:42:00,
2013-08-17 17:54:00,71.0,54.0,-100.00,ENE,74,6.0,13.0,56,0.00,,,0.00,287.000000,,2013-08-17 21:54:00,
2013-08-17 18:03:00,71.0,54.0,-100.00,ENE,74,6.0,13.0,56,0.00,,,0.00,287.000000,,2013-08-17 22:03:00,
2013-08-17 18:13:00,71.0,54.0,-100.00,ENE,74,6.0,13.0,56,0.00,,,0.00,287.000000,,2013-08-17 22:13:00,
2013-08-17 18:42:00,70.0,55.0,-100.00,ENE,67,6.0,10.0,59,0.00,,,0.00,233.000000,,2013-08-17 22:42:00,
2013-08-17 18:52:00,70.0,55.0,-100.00,ENE,67,6.0,10.0,59,0.00,,,0.00,233.000000,,2013-08-17 22:52:00,
2013-08-17 19:02:00,70.0,55.0,-100.00,ENE,67,6.0,10.0,59,0.00,,,0.00,233.000000,,2013-08-17 23:02:00,
2013-08-17 19:11:00,70.0,55.0,-100.00,ENE,67,6.0,10.0,59,0.00,,,0.00,233.000000,,2013-08-17 23:11:00,
2013-08-17 19:42:00,68.0,55.0,-100.00,ENE,65,5.0,10.0,63,0.00,,,0.00,96.000000,,2013-08-17 23:42:00,
2013-08-17 19:52:00,68.0,55.0,-100.00,ENE,65,5.0,10.0,63,0.00,,,0.00,96.000000,,2013-08-17 23:52:00,
2013-08-17 20:01:00,68.0,55.0,-100.00,ENE,65,5.0,10.0,63,0.00,,,0.00,96.000000,,2013-08-18 00:01:00,
2013-08-17 20:12:00,68.0,55.0,-100.00,ENE,65,5.0,10.0,63,0.00,,,0.00,96.000000,,2013-08-18 00:12:00,
2013-08-17 20:42:00,66.0,56.0,-100.00,ENE,75,3.0,7.0,70,0.00,,,0.00,18.000000,,2013-08-18 00:42:00,
2013-08-17 20:52:00,66.0,56.0,-100.00,ENE,75,3.0,7.0,70,0.00,,,0.00,18.000000,,2013-08-18 00:52:00,
2013-08-17 21:01:00,66.0,56.0,-100.00,ENE,75,3.0,7.0,70,0.00,,,0.00,18.000000,,2013-08-18 01:01:00,
2013-08-17 21:11:00,66.0,56.0,-100.00,ENE,75,3.0,7.0,70,0.00,,,0.00,18.000000,,2013-08-18 01:11:00,
2013-08-17 21:42:00,65.0,56.0,-100.00,East,96,2.0,6.0,72,0.00,,,0.00,0.000000,,2013-08-18 01:42:00,
2013-08-17 21:52:00,65.0,56.0,-100.00,East,96,2.0,6.0,72,0.00,,,0.00,0.000000,,2013-08-18 01:52:00,
2013-08-17 22:02:00,65.0,56.0,-100.00,East,96,2.0,6.0,72,0.00,,,0.00,0.000000,,2013-08-18 02:02:00,
2013-08-17 22:11:00,65.0,56.0,-100.00,East,96,2.0,6.0,72,0.00,,,0.00,0.000000,,2013-08-18 02:11:00,
2013-08-17 22:42:00,64.0,56.0,-100.00,East,91,2.0,5.0,76,0.00,,,0.00,0.000000,,2013-08-18 02:42:00,
2013-08-17 22:52:00,64.0,56.0,-100.00,East,91,2.0,5.0,76,0.00,,,0.00,0.000000,,2013-08-18 02:52:00,
2013-08-17 23:02:00,64.0,56.0,-100.00,East,91,2.0,5.0,76,0.00,,,0.00,0.000000,,2013-08-18 03:02:00,
2013-08-17 23:11:00,64.0,56.0,-100.00,East,91,2.0,5.0,76,0.00,,,0.00,0.000000,,2013-08-18 03:11:00,
2013-08-17 23:43:00,65.0,56.0,-100.00,SW,217,2.0,6.0,74,0.00,,,-99.99,0.000000,,2013-08-18 03:43:00,
2013-08-17 23:53:00,65.0,56.0,-100.00,SW,217,2.0,6.0,74,0.00,,,-99.99,0.000000,,2013-08-18 03:53:00,